KFSI Airport (Henry Post Aaf (Fort Sill)) Information

FAA: FSI - ICAO: KFSI

KFSI Airport Location

State Oklahoma
County Comanche
City Fort Sill
KFSI Airport is 1 miles southeast of Fort Sill, OK.
Latitude 34-38-59.3754N
Longitude 098-24-07.8657W
Elevation 1,188ft

KFSI Airport METARs

METAR KFSI 251756Z AUTO 09008KT 10SM CLR 25/12 A2998 RMK AO2 SLP147 T02490121 10249 20092 57016
Altimeter 29.98"
Temperature 24.9°C (76.8°F)
Wind 90° at 8KT
Clouds Skies are clear.
Visibility 10.0mi
Time observed: 2021-10-25T17:56:00Z

KFSI Airport Details

Status Operational
Activation December 1943
Ownership Military - Army
Usage Private
Chart DALLAS-FT WORTH
ATC on-site Yes
Beacon schedule sunset-sunrise
Beacon color split clear green

KFSI Airport Contacts

Owner US ARMY AERONAUTICAL SVCS AGENCY
Owner address N/A, FT BELVOIR, VA 22060
Owner phone N/A
Manager ROBERT EAKINS
Manager address 10509 NW ALLISON RD, ELGIN, OK 73538
Manager phone 580-583-5128

KFSI Airport (Henry Post Aaf (Fort Sill)) Radio Frequencies

KFSI (Airport) Radio Frequencies

UNICOM N/A
Common traffic advisory frequency (CTAF) 124.95